sensor_id;sensor_type;location;lat;lon;timestamp;pressure;altitude;pressure_sealevel;temperature;humidity
78835;BME280;68187;42.682;23.352;2023-02-26T00:01:17;93958.47;;;14.11;38.78
78835;BME280;68187;42.682;23.352;2023-02-26T00:03:49;93975.81;;;14.09;39.41
78835;BME280;68187;42.682;23.352;2023-02-26T00:06:17;93969.25;;;14.06;39.01
78835;BME280;68187;42.682;23.352;2023-02-26T00:08:45;93972.56;;;14.03;39.40
78835;BME280;68187;42.682;23.352;2023-02-26T00:11:13;93970.19;;;14.02;38.99
78835;BME280;68187;42.682;23.352;2023-02-26T00:13:42;93960.69;;;14.01;38.96
78835;BME280;68187;42.682;23.352;2023-02-26T00:16:15;93960.22;;;13.99;39.33
78835;BME280;68187;42.682;23.352;2023-02-26T00:18:50;93956.16;;;14.01;38.65
78835;BME280;68187;42.682;23.352;2023-02-26T00:21:18;93956.63;;;14.03;38.18
78835;BME280;68187;42.682;23.352;2023-02-26T00:23:47;93949.13;;;14.05;38.02
78835;BME280;68187;42.682;23.352;2023-02-26T00:26:14;93942.72;;;14.06;38.11
78835;BME280;68187;42.682;23.352;2023-02-26T00:28:42;93959.44;;;14.07;38.20
78835;BME280;68187;42.682;23.352;2023-02-26T00:31:10;93950.19;;;14.13;37.79
78835;BME280;68187;42.682;23.352;2023-02-26T00:33:39;93948.31;;;14.13;38.32
78835;BME280;68187;42.682;23.352;2023-02-26T00:36:18;93951.47;;;14.07;38.68
78835;BME280;68187;42.682;23.352;2023-02-26T00:39:02;93946.16;;;13.98;38.96
78835;BME280;68187;42.682;23.352;2023-02-26T00:41:32;93945.25;;;13.94;38.49
78835;BME280;68187;42.682;23.352;2023-02-26T00:44:01;93934.16;;;13.92;38.84
78835;BME280;68187;42.682;23.352;2023-02-26T00:46:35;93939.28;;;13.89;38.96
78835;BME280;68187;42.682;23.352;2023-02-26T00:49:16;93934.94;;;13.84;39.22
78835;BME280;68187;42.682;23.352;2023-02-26T00:51:48;93929.94;;;13.83;39.23
78835;BME280;68187;42.682;23.352;2023-02-26T00:54:19;93920.25;;;13.87;38.33
78835;BME280;68187;42.682;23.352;2023-02-26T00:56:48;93919.34;;;13.83;38.92
78835;BME280;68187;42.682;23.352;2023-02-26T00:59:16;93920.72;;;13.80;39.08
78835;BME280;68187;42.682;23.352;2023-02-26T01:01:44;93937.59;;;13.76;38.72
78835;BME280;68187;42.682;23.352;2023-02-26T01:04:13;93928.06;;;13.75;39.02
78835;BME280;68187;42.682;23.352;2023-02-26T01:06:43;93914.66;;;13.71;38.98
78835;BME280;68187;42.682;23.352;2023-02-26T01:09:17;93919.31;;;13.66;39.78
78835;BME280;68187;42.682;23.352;2023-02-26T01:11:47;93918.84;;;13.64;39.71
78835;BME280;68187;42.682;23.352;2023-02-26T01:14:15;93924.81;;;13.61;39.70
78835;BME280;68187;42.682;23.352;2023-02-26T01:16:50;93901.84;;;13.65;39.16
78835;BME280;68187;42.682;23.352;2023-02-26T01:19:26;93916.22;;;13.55;40.39
78835;BME280;68187;42.682;23.352;2023-02-26T01:22:02;93900.44;;;13.50;39.65
78835;BME280;68187;42.682;23.352;2023-02-26T01:24:34;93884.84;;;13.48;39.80
78835;BME280;68187;42.682;23.352;2023-02-26T01:27:03;93890.44;;;13.38;40.29
78835;BME280;68187;42.682;23.352;2023-02-26T01:29:31;93894.69;;;13.39;39.42
78835;BME280;68187;42.682;23.352;2023-02-26T01:32:03;93882.50;;;13.38;39.95
78835;BME280;68187;42.682;23.352;2023-02-26T01:34:36;93856.16;;;13.42;39.60
78835;BME280;68187;42.682;23.352;2023-02-26T01:37:13;93865.50;;;13.39;39.54
78835;BME280;68187;42.682;23.352;2023-02-26T01:39:58;93851.78;;;13.37;38.85
78835;BME280;68187;42.682;23.352;2023-02-26T01:42:31;93850.06;;;13.41;38.47
78835;BME280;68187;42.682;23.352;2023-02-26T01:45:09;93853.97;;;13.44;38.54
78835;BME280;68187;42.682;23.352;2023-02-26T01:47:42;93857.41;;;13.44;39.04
78835;BME280;68187;42.682;23.352;2023-02-26T01:50:15;93847.88;;;13.43;39.04
78835;BME280;68187;42.682;23.352;2023-02-26T01:53:17;93860.06;;;13.44;38.12
78835;BME280;68187;42.682;23.352;2023-02-26T01:55:50;93847.25;;;13.46;38.10
78835;BME280;68187;42.682;23.352;2023-02-26T01:58:19;93863.16;;;13.46;38.26
78835;BME280;68187;42.682;23.352;2023-02-26T02:00:47;93840.09;;;13.47;37.91
78835;BME280;68187;42.682;23.352;2023-02-26T02:03:15;93828.66;;;13.38;36.87
78835;BME280;68187;42.682;23.352;2023-02-26T02:05:46;93832.72;;;13.61;35.73
78835;BME280;68187;42.682;23.352;2023-02-26T02:08:16;93826.75;;;13.73;35.47
78835;BME280;68187;42.682;23.352;2023-02-26T02:10:48;93865.94;;;13.84;35.52
78835;BME280;68187;42.682;23.352;2023-02-26T02:13:29;93851.41;;;13.82;35.38
78835;BME280;68187;42.682;23.352;2023-02-26T02:16:07;93832.69;;;13.78;35.73
78835;BME280;68187;42.682;23.352;2023-02-26T02:18:46;93836.75;;;13.76;35.73
78835;BME280;68187;42.682;23.352;2023-02-26T02:21:32;93836.13;;;13.87;34.54
78835;BME280;68187;42.682;23.352;2023-02-26T02:24:10;93834.06;;;13.93;34.96
78835;BME280;68187;42.682;23.352;2023-02-26T02:26:55;93838.59;;;13.92;34.84
78835;BME280;68187;42.682;23.352;2023-02-26T02:32:26;93847.97;;;13.81;35.69
78835;BME280;68187;42.682;23.352;2023-02-26T02:34:59;93827.38;;;13.78;35.87
78835;BME280;68187;42.682;23.352;2023-02-26T02:37:33;93833.19;;;13.72;35.64
78835;BME280;68187;42.682;23.352;2023-02-26T02:40:05;93824.28;;;13.68;35.55
78835;BME280;68187;42.682;23.352;2023-02-26T02:42:38;93843.94;;;13.67;35.64
78835;BME280;68187;42.682;23.352;2023-02-26T02:45:10;93848.34;;;13.63;35.55
78835;BME280;68187;42.682;23.352;2023-02-26T02:47:45;93854.09;;;13.65;35.76
78835;BME280;68187;42.682;23.352;2023-02-26T02:50:18;93864.53;;;13.61;35.40
78835;BME280;68187;42.682;23.352;2023-02-26T02:52:51;93854.06;;;13.82;34.49
78835;BME280;68187;42.682;23.352;2023-02-26T02:55:23;93870.91;;;13.86;34.67
78835;BME280;68187;42.682;23.352;2023-02-26T02:57:56;93852.53;;;13.81;34.85
78835;BME280;68187;42.682;23.352;2023-02-26T03:00:27;93838.94;;;13.74;34.94
78835;BME280;68187;42.682;23.352;2023-02-26T03:03:03;93852.19;;;13.82;34.04
78835;BME280;68187;42.682;23.352;2023-02-26T03:05:32;93857.19;;;13.84;34.52
78835;BME280;68187;42.682;23.352;2023-02-26T03:08:03;93878.28;;;13.80;34.42
78835;BME280;68187;42.682;23.352;2023-02-26T03:10:31;93856.56;;;13.87;33.93
78835;BME280;68187;42.682;23.352;2023-02-26T03:12:59;93869.38;;;13.85;34.35
78835;BME280;68187;42.682;23.352;2023-02-26T03:15:34;93868.44;;;13.81;34.36
78835;BME280;68187;42.682;23.352;2023-02-26T03:18:12;93849.22;;;13.92;33.68
78835;BME280;68187;42.682;23.352;2023-02-26T03:20:48;93858.41;;;13.95;33.64
78835;BME280;68187;42.682;23.352;2023-02-26T03:23:23;93856.22;;;13.88;33.77
78835;BME280;68187;42.682;23.352;2023-02-26T03:25:57;93858.28;;;13.83;34.09
78835;BME280;68187;42.682;23.352;2023-02-26T03:28:40;93850.94;;;13.80;33.53
78835;BME280;68187;42.682;23.352;2023-02-26T03:31:12;93842.66;;;13.81;33.59
78835;BME280;68187;42.682;23.352;2023-02-26T03:33:49;93844.09;;;13.79;33.57
78835;BME280;68187;42.682;23.352;2023-02-26T03:36:23;93848.44;;;13.75;33.97
78835;BME280;68187;42.682;23.352;2023-02-26T03:38:55;93865.94;;;13.76;33.66
78835;BME280;68187;42.682;23.352;2023-02-26T03:41:28;93847.97;;;13.90;32.92
78835;BME280;68187;42.682;23.352;2023-02-26T03:44:00;93850.63;;;13.90;33.36
78835;BME280;68187;42.682;23.352;2023-02-26T03:46:33;93839.22;;;13.89;33.18
78835;BME280;68187;42.682;23.352;2023-02-26T03:49:08;93844.69;;;13.84;33.13
78835;BME280;68187;42.682;23.352;2023-02-26T03:51:38;93836.56;;;13.89;33.29
78835;BME280;68187;42.682;23.352;2023-02-26T03:54:14;93855.94;;;13.90;33.20
78835;BME280;68187;42.682;23.352;2023-02-26T03:56:45;93849.53;;;13.91;32.93
78835;BME280;68187;42.682;23.352;2023-02-26T03:59:14;93833.59;;;13.91;33.07
78835;BME280;68187;42.682;23.352;2023-02-26T04:01:46;93828.00;;;13.92;33.21
78835;BME280;68187;42.682;23.352;2023-02-26T04:04:20;93834.72;;;13.90;33.38
78835;BME280;68187;42.682;23.352;2023-02-26T04:06:50;93823.28;;;13.98;32.98
78835;BME280;68187;42.682;23.352;2023-02-26T04:09:19;93840.28;;;14.05;32.83
78835;BME280;68187;42.682;23.352;2023-02-26T04:11:48;93847.47;;;14.05;33.28
78835;BME280;68187;42.682;23.352;2023-02-26T04:14:16;93823.72;;;14.00;33.54
78835;BME280;68187;42.682;23.352;2023-02-26T04:16:44;93829.41;;;13.90;33.51
78835;BME280;68187;42.682;23.352;2023-02-26T04:19:12;93818.00;;;13.89;33.34
78835;BME280;68187;42.682;23.352;2023-02-26T04:21:41;93814.72;;;13.84;33.85
78835;BME280;68187;42.682;23.352;2023-02-26T04:24:09;93822.09;;;13.78;33.67
78835;BME280;68187;42.682;23.352;2023-02-26T04:26:36;93831.28;;;13.72;34.00
78835;BME280;68187;42.682;23.352;2023-02-26T04:29:04;93805.88;;;13.63;34.20
78835;BME280;68187;42.682;23.352;2023-02-26T04:31:31;93797.28;;;13.66;33.95
78835;BME280;68187;42.682;23.352;2023-02-26T04:33:59;93800.53;;;13.80;33.21
78835;BME280;68187;42.682;23.352;2023-02-26T04:36:26;93801.00;;;13.82;33.39
78835;BME280;68187;42.682;23.352;2023-02-26T04:38:55;93797.53;;;13.81;33.52
78835;BME280;68187;42.682;23.352;2023-02-26T04:41:23;93781.03;;;13.76;33.50
78835;BME280;68187;42.682;23.352;2023-02-26T04:43:50;93782.44;;;13.73;33.48
78835;BME280;68187;42.682;23.352;2023-02-26T04:46:18;93779.66;;;13.70;34.22
78835;BME280;68187;42.682;23.352;2023-02-26T04:48:45;93799.78;;;13.62;34.93
78835;BME280;68187;42.682;23.352;2023-02-26T04:51:13;93782.78;;;13.54;33.86
78835;BME280;68187;42.682;23.352;2023-02-26T04:53:40;93773.28;;;13.53;33.76
78835;BME280;68187;42.682;23.352;2023-02-26T04:56:09;93770.78;;;13.48;34.54
78835;BME280;68187;42.682;23.352;2023-02-26T04:58:37;93784.38;;;13.47;34.22
78835;BME280;68187;42.682;23.352;2023-02-26T05:01:05;93781.25;;;13.45;34.45
78835;BME280;68187;42.682;23.352;2023-02-26T05:03:32;93794.97;;;13.38;35.30
78835;BME280;68187;42.682;23.352;2023-02-26T05:06:00;93769.25;;;13.30;35.84
78835;BME280;68187;42.682;23.352;2023-02-26T05:08:28;93797.81;;;13.16;36.46
78835;BME280;68187;42.682;23.352;2023-02-26T05:10:55;93791.72;;;13.07;35.84
78835;BME280;68187;42.682;23.352;2023-02-26T05:13:24;93794.19;;;12.95;36.74
78835;BME280;68187;42.682;23.352;2023-02-26T05:15:53;93760.84;;;12.94;36.73
78835;BME280;68187;42.682;23.352;2023-02-26T05:18:20;93795.91;;;12.91;36.35
78835;BME280;68187;42.682;23.352;2023-02-26T05:20:51;93782.66;;;12.91;36.11
78835;BME280;68187;42.682;23.352;2023-02-26T05:23:19;93781.72;;;12.96;36.67
78835;BME280;68187;42.682;23.352;2023-02-26T05:25:47;93769.41;;;12.82;37.22
78835;BME280;68187;42.682;23.352;2023-02-26T05:28:15;93745.38;;;12.70;36.49
78835;BME280;68187;42.682;23.352;2023-02-26T05:30:44;93756.31;;;12.86;36.10
78835;BME280;68187;42.682;23.352;2023-02-26T05:33:12;93782.78;;;12.86;36.28
78835;BME280;68187;42.682;23.352;2023-02-26T05:35:39;93782.19;;;12.89;36.21
78835;BME280;68187;42.682;23.352;2023-02-26T05:38:07;93780.59;;;12.88;36.37
78835;BME280;68187;42.682;23.352;2023-02-26T05:40:34;93787.34;;;12.94;36.57
78835;BME280;68187;42.682;23.352;2023-02-26T05:43:02;93768.16;;;12.97;36.79
78835;BME280;68187;42.682;23.352;2023-02-26T05:45:29;93779.25;;;12.99;36.61
78835;BME280;68187;42.682;23.352;2023-02-26T05:47:58;93758.50;;;13.01;36.35
78835;BME280;68187;42.682;23.352;2023-02-26T05:50:26;93773.50;;;13.14;35.25
78835;BME280;68187;42.682;23.352;2023-02-26T05:52:55;93778.47;;;13.33;34.59
78835;BME280;68187;42.682;23.352;2023-02-26T05:55:23;93785.13;;;13.47;34.48
78835;BME280;68187;42.682;23.352;2023-02-26T05:57:50;93797.31;;;13.48;34.54
78835;BME280;68187;42.682;23.352;2023-02-26T06:00:18;93788.13;;;13.46;34.48
78835;BME280;68187;42.682;23.352;2023-02-26T06:02:46;93794.31;;;13.67;32.78
78835;BME280;68187;42.682;23.352;2023-02-26T06:05:15;93753.41;;;13.68;32.79
78835;BME280;68187;42.682;23.352;2023-02-26T06:07:42;93797.25;;;13.83;32.88
78835;BME280;68187;42.682;23.352;2023-02-26T06:10:11;93808.94;;;13.82;33.12
78835;BME280;68187;42.682;23.352;2023-02-26T06:12:39;93798.16;;;13.87;33.17
78835;BME280;68187;42.682;23.352;2023-02-26T06:15:07;93793.94;;;13.94;32.34
78835;BME280;68187;42.682;23.352;2023-02-26T06:17:35;93801.72;;;13.99;32.57
78835;BME280;68187;42.682;23.352;2023-02-26T06:20:04;93807.81;;;14.00;32.44
78835;BME280;68187;42.682;23.352;2023-02-26T06:22:33;93792.03;;;14.03;32.24
78835;BME280;68187;42.682;23.352;2023-02-26T06:25:00;93809.03;;;14.02;32.25
78835;BME280;68187;42.682;23.352;2023-02-26T06:27:28;93828.88;;;14.05;32.52
78835;BME280;68187;42.682;23.352;2023-02-26T06:29:55;93796.56;;;14.03;32.46
78835;BME280;68187;42.682;23.352;2023-02-26T06:32:23;93783.41;;;14.06;32.17
78835;BME280;68187;42.682;23.352;2023-02-26T06:34:51;93804.03;;;14.09;32.36
78835;BME280;68187;42.682;23.352;2023-02-26T06:37:19;93796.75;;;14.27;30.71
78835;BME280;68187;42.682;23.352;2023-02-26T06:39:48;93797.41;;;14.62;30.21
78835;BME280;68187;42.682;23.352;2023-02-26T06:42:15;93824.53;;;14.76;30.20
78835;BME280;68187;42.682;23.352;2023-02-26T06:44:42;93790.81;;;14.88;29.38
78835;BME280;68187;42.682;23.352;2023-02-26T06:47:10;93802.97;;;14.98;29.96
78835;BME280;68187;42.682;23.352;2023-02-26T06:49:37;93795.81;;;15.11;28.65
78835;BME280;68187;42.682;23.352;2023-02-26T06:52:05;93801.09;;;15.19;28.20
78835;BME280;68187;42.682;23.352;2023-02-26T06:54:32;93808.09;;;15.24;28.70
78835;BME280;68187;42.682;23.352;2023-02-26T06:57:01;93801.28;;;15.35;27.64
78835;BME280;68187;42.682;23.352;2023-02-26T06:59:29;93781.22;;;15.37;28.42
78835;BME280;68187;42.682;23.352;2023-02-26T07:01:56;93796.41;;;15.37;28.12
78835;BME280;68187;42.682;23.352;2023-02-26T07:04:24;93779.91;;;15.43;27.68
78835;BME280;68187;42.682;23.352;2023-02-26T07:06:51;93783.50;;;15.47;27.71
78835;BME280;68187;42.682;23.352;2023-02-26T07:09:19;93772.78;;;15.56;27.52
78835;BME280;68187;42.682;23.352;2023-02-26T07:11:46;93782.47;;;15.60;27.58
78835;BME280;68187;42.682;23.352;2023-02-26T07:14:15;93783.78;;;15.66;27.52
78835;BME280;68187;42.682;23.352;2023-02-26T07:16:43;93803.75;;;15.73;27.69
78835;BME280;68187;42.682;23.352;2023-02-26T07:19:10;93774.28;;;15.78;27.10
78835;BME280;68187;42.682;23.352;2023-02-26T07:21:38;93786.28;;;15.84;27.18
78835;BME280;68187;42.682;23.352;2023-02-26T07:24:06;93771.22;;;15.88;27.01
78835;BME280;68187;42.682;23.352;2023-02-26T07:26:34;93796.16;;;15.95;27.06
78835;BME280;68187;42.682;23.352;2023-02-26T07:29:01;93775.09;;;16.02;27.45
78835;BME280;68187;42.682;23.352;2023-02-26T07:31:30;93777.22;;;16.09;26.46
78835;BME280;68187;42.682;23.352;2023-02-26T07:33:57;93781.44;;;16.10;25.94
78835;BME280;68187;42.682;23.352;2023-02-26T07:36:25;93770.00;;;16.09;26.04
78835;BME280;68187;42.682;23.352;2023-02-26T07:38:52;93794.66;;;16.18;26.11
78835;BME280;68187;42.682;23.352;2023-02-26T07:41:20;93763.56;;;16.22;26.20
78835;BME280;68187;42.682;23.352;2023-02-26T07:43:47;93769.47;;;16.28;25.89
78835;BME280;68187;42.682;23.352;2023-02-26T07:46:15;93775.34;;;16.33;26.02
78835;BME280;68187;42.682;23.352;2023-02-26T07:48:44;93805.88;;;16.36;25.62
78835;BME280;68187;42.682;23.352;2023-02-26T07:51:11;93757.81;;;16.32;25.54
78835;BME280;68187;42.682;23.352;2023-02-26T07:53:39;93779.25;;;16.36;25.79
78835;BME280;68187;42.682;23.352;2023-02-26T07:56:06;93787.91;;;16.33;25.51
78835;BME280;68187;42.682;23.352;2023-02-26T07:58:34;93773.91;;;16.36;25.41
78835;BME280;68187;42.682;23.352;2023-02-26T08:01:02;93766.78;;;16.40;25.34
78835;BME280;68187;42.682;23.352;2023-02-26T08:03:30;93747.94;;;16.45;25.00
78835;BME280;68187;42.682;23.352;2023-02-26T08:05:59;93764.16;;;16.52;25.21
78835;BME280;68187;42.682;23.352;2023-02-26T08:08:26;93784.50;;;16.57;24.87
78835;BME280;68187;42.682;23.352;2023-02-26T08:10:54;93772.16;;;16.64;25.06
78835;BME280;68187;42.682;23.352;2023-02-26T08:13:21;93802.03;;;16.70;24.59
78835;BME280;68187;42.682;23.352;2023-02-26T08:15:49;93767.38;;;16.70;24.74
78835;BME280;68187;42.682;23.352;2023-02-26T08:18:16;93810.50;;;16.72;24.99
78835;BME280;68187;42.682;23.352;2023-02-26T08:20:45;93771.16;;;16.69;25.07
78835;BME280;68187;42.682;23.352;2023-02-26T08:23:14;93799.25;;;16.66;24.65
78835;BME280;68187;42.682;23.352;2023-02-26T08:25:44;93780.91;;;16.77;24.45
78835;BME280;68187;42.682;23.352;2023-02-26T08:28:12;93811.16;;;16.81;24.20
78835;BME280;68187;42.682;23.352;2023-02-26T08:30:39;93774.78;;;16.88;24.59
78835;BME280;68187;42.682;23.352;2023-02-26T08:33:07;93772.25;;;16.92;25.01
78835;BME280;68187;42.682;23.352;2023-02-26T08:35:34;93784.44;;;17.05;24.64
78835;BME280;68187;42.682;23.352;2023-02-26T08:38:02;93809.09;;;17.14;24.72
78835;BME280;68187;42.682;23.352;2023-02-26T08:40:31;93826.09;;;17.22;23.89
78835;BME280;68187;42.682;23.352;2023-02-26T08:42:58;93818.72;;;17.31;24.34
78835;BME280;68187;42.682;23.352;2023-02-26T08:45:26;93804.91;;;17.41;24.49
78835;BME280;68187;42.682;23.352;2023-02-26T08:47:53;93813.22;;;17.51;24.37
78835;BME280;68187;42.682;23.352;2023-02-26T08:50:22;93819.22;;;17.60;24.48
78835;BME280;68187;42.682;23.352;2023-02-26T08:52:53;93822.84;;;17.68;23.66
78835;BME280;68187;42.682;23.352;2023-02-26T08:55:21;93831.63;;;17.68;23.60
78835;BME280;68187;42.682;23.352;2023-02-26T08:57:50;93832.00;;;17.67;23.80
78835;BME280;68187;42.682;23.352;2023-02-26T09:00:18;93801.78;;;17.51;23.71
78835;BME280;68187;42.682;23.352;2023-02-26T09:02:46;93826.81;;;17.46;23.58
78835;BME280;68187;42.682;23.352;2023-02-26T09:05:14;93810.09;;;17.49;23.52
78835;BME280;68187;42.682;23.352;2023-02-26T09:07:43;93796.44;;;17.39;24.22
78835;BME280;68187;42.682;23.352;2023-02-26T09:10:12;93823.22;;;17.42;24.27
78835;BME280;68187;42.682;23.352;2023-02-26T09:12:40;93803.44;;;17.55;24.44
78835;BME280;68187;42.682;23.352;2023-02-26T09:15:10;93797.13;;;17.75;24.18
78835;BME280;68187;42.682;23.352;2023-02-26T09:17:39;93810.84;;;17.90;22.66
78835;BME280;68187;42.682;23.352;2023-02-26T09:20:08;93810.88;;;18.05;22.69
78835;BME280;68187;42.682;23.352;2023-02-26T09:22:36;93786.06;;;18.20;23.30
78835;BME280;68187;42.682;23.352;2023-02-26T09:25:04;93791.34;;;18.48;22.78
78835;BME280;68187;42.682;23.352;2023-02-26T09:27:32;93779.06;;;18.78;21.89
78835;BME280;68187;42.682;23.352;2023-02-26T09:30:00;93777.78;;;19.07;21.90
78835;BME280;68187;42.682;23.352;2023-02-26T09:32:29;93780.84;;;19.24;21.76
78835;BME280;68187;42.682;23.352;2023-02-26T09:34:57;93796.06;;;19.20;22.45
78835;BME280;68187;42.682;23.352;2023-02-26T09:37:24;93781.59;;;19.41;22.22
78835;BME280;68187;42.682;23.352;2023-02-26T09:39:52;93779.41;;;19.46;21.95
78835;BME280;68187;42.682;23.352;2023-02-26T09:42:32;93795.25;;;19.55;22.10
78835;BME280;68187;42.682;23.352;2023-02-26T09:45:06;93796.47;;;19.57;21.33
78835;BME280;68187;42.682;23.352;2023-02-26T09:47:43;93832.06;;;19.77;20.57
78835;BME280;68187;42.682;23.352;2023-02-26T09:50:17;93784.38;;;19.86;19.84
78835;BME280;68187;42.682;23.352;2023-02-26T09:52:48;93788.69;;;20.13;20.45
78835;BME280;68187;42.682;23.352;2023-02-26T09:55:23;93810.47;;;20.53;20.04
78835;BME280;68187;42.682;23.352;2023-02-26T09:57:57;93794.34;;;20.50;19.58
78835;BME280;68187;42.682;23.352;2023-02-26T10:00:33;93782.13;;;20.30;19.41
78835;BME280;68187;42.682;23.352;2023-02-26T10:03:17;93780.81;;;20.43;19.39
78835;BME280;68187;42.682;23.352;2023-02-26T10:06:08;93781.75;;;20.31;20.18
78835;BME280;68187;42.682;23.352;2023-02-26T10:08:45;93782.53;;;20.32;20.45
78835;BME280;68187;42.682;23.352;2023-02-26T10:11:19;93784.50;;;20.57;20.53
78835;BME280;68187;42.682;23.352;2023-02-26T10:13:52;93793.66;;;20.79;19.96
78835;BME280;68187;42.682;23.352;2023-02-26T10:16:25;93782.88;;;21.02;19.76
78835;BME280;68187;42.682;23.352;2023-02-26T10:18:57;93774.72;;;20.95;19.57
78835;BME280;68187;42.682;23.352;2023-02-26T10:21:31;93806.56;;;20.96;19.27
78835;BME280;68187;42.682;23.352;2023-02-26T10:24:06;93816.06;;;20.90;18.65
78835;BME280;68187;42.682;23.352;2023-02-26T10:26:39;93778.22;;;20.24;19.24
78835;BME280;68187;42.682;23.352;2023-02-26T10:29:16;93801.31;;;20.13;19.59
78835;BME280;68187;42.682;23.352;2023-02-26T10:32:00;93773.13;;;20.41;19.56
78835;BME280;68187;42.682;23.352;2023-02-26T10:34:33;93766.56;;;20.16;18.88
78835;BME280;68187;42.682;23.352;2023-02-26T10:37:11;93774.38;;;20.25;19.72
78835;BME280;68187;42.682;23.352;2023-02-26T10:39:46;93785.19;;;20.28;19.33
78835;BME280;68187;42.682;23.352;2023-02-26T10:42:17;93764.34;;;20.22;19.49
78835;BME280;68187;42.682;23.352;2023-02-26T10:44:54;93764.81;;;20.05;19.82
78835;BME280;68187;42.682;23.352;2023-02-26T10:47:32;93739.66;;;20.13;19.77
78835;BME280;68187;42.682;23.352;2023-02-26T10:50:08;93752.66;;;20.11;19.75
78835;BME280;68187;42.682;23.352;2023-02-26T10:52:37;93756.66;;;20.20;19.91
78835;BME280;68187;42.682;23.352;2023-02-26T10:55:23;93751.13;;;20.10;20.11
78835;BME280;68187;42.682;23.352;2023-02-26T10:57:58;93731.56;;;19.86;20.30
78835;BME280;68187;42.682;23.352;2023-02-26T11:00:26;93747.69;;;19.48;20.36
78835;BME280;68187;42.682;23.352;2023-02-26T11:02:54;93749.94;;;19.46;20.61
78835;BME280;68187;42.682;23.352;2023-02-26T11:05:25;93757.06;;;19.39;20.28
78835;BME280;68187;42.682;23.352;2023-02-26T11:07:55;93726.25;;;19.29;20.93
78835;BME280;68187;42.682;23.352;2023-02-26T11:10:26;93730.69;;;19.21;21.04
78835;BME280;68187;42.682;23.352;2023-02-26T11:12:54;93752.22;;;19.29;20.98
78835;BME280;68187;42.682;23.352;2023-02-26T11:15:24;93719.69;;;19.27;21.27
78835;BME280;68187;42.682;23.352;2023-02-26T11:17:53;93735.19;;;19.17;21.28
78835;BME280;68187;42.682;23.352;2023-02-26T11:20:29;93725.09;;;19.11;21.51
78835;BME280;68187;42.682;23.352;2023-02-26T11:22:58;93734.47;;;19.01;22.07
78835;BME280;68187;42.682;23.352;2023-02-26T11:25:29;93731.84;;;18.86;22.12
78835;BME280;68187;42.682;23.352;2023-02-26T11:28:01;93736.91;;;18.56;22.39
78835;BME280;68187;42.682;23.352;2023-02-26T11:30:35;93747.28;;;18.58;22.53
78835;BME280;68187;42.682;23.352;2023-02-26T11:33:12;93758.91;;;18.49;23.03
78835;BME280;68187;42.682;23.352;2023-02-26T11:35:44;93759.06;;;18.41;23.29
78835;BME280;68187;42.682;23.352;2023-02-26T11:38:18;93764.59;;;18.32;23.25
78835;BME280;68187;42.682;23.352;2023-02-26T11:40:48;93752.09;;;18.21;23.33
78835;BME280;68187;42.682;23.352;2023-02-26T11:43:18;93776.94;;;18.06;23.70
78835;BME280;68187;42.682;23.352;2023-02-26T11:45:49;93758.72;;;17.96;24.00
78835;BME280;68187;42.682;23.352;2023-02-26T11:48:21;93764.06;;;17.96;24.22
78835;BME280;68187;42.682;23.352;2023-02-26T11:50:54;93795.53;;;18.02;24.21
78835;BME280;68187;42.682;23.352;2023-02-26T11:53:25;93769.59;;;18.03;24.12
78835;BME280;68187;42.682;23.352;2023-02-26T11:56:03;93776.47;;;18.04;24.30
78835;BME280;68187;42.682;23.352;2023-02-26T11:58:36;93776.31;;;17.97;24.53
78835;BME280;68187;42.682;23.352;2023-02-26T12:01:06;93782.34;;;17.94;24.78
78835;BME280;68187;42.682;23.352;2023-02-26T12:03:37;93801.66;;;18.03;23.84
78835;BME280;68187;42.682;23.352;2023-02-26T12:06:09;93805.97;;;18.23;23.08
78835;BME280;68187;42.682;23.352;2023-02-26T12:08:40;93821.22;;;18.38;23.58
78835;BME280;68187;42.682;23.352;2023-02-26T12:11:28;93812.75;;;18.48;24.20
78835;BME280;68187;42.682;23.352;2023-02-26T12:14:07;93815.94;;;18.69;24.02
78835;BME280;68187;42.682;23.352;2023-02-26T12:16:47;93816.25;;;18.83;24.62
78835;BME280;68187;42.682;23.352;2023-02-26T12:19:25;93824.63;;;18.82;24.52
78835;BME280;68187;42.682;23.352;2023-02-26T12:22:01;93832.56;;;18.78;24.52
78835;BME280;68187;42.682;23.352;2023-02-26T12:24:47;93827.38;;;18.70;24.53
78835;BME280;68187;42.682;23.352;2023-02-26T12:27:30;93812.75;;;18.48;24.21
78835;BME280;68187;42.682;23.352;2023-02-26T12:30:13;93853.41;;;18.26;25.77
78835;BME280;68187;42.682;23.352;2023-02-26T12:35:50;93824.75;;;18.11;26.63
78835;BME280;68187;42.682;23.352;2023-02-26T12:38:29;93833.06;;;18.21;26.42
78835;BME280;68187;42.682;23.352;2023-02-26T12:41:35;93835.50;;;18.42;26.47
78835;BME280;68187;42.682;23.352;2023-02-26T12:44:16;93845.25;;;18.66;26.66
78835;BME280;68187;42.682;23.352;2023-02-26T12:46:57;93845.00;;;18.55;27.50
78835;BME280;68187;42.682;23.352;2023-02-26T12:49:48;93833.44;;;18.51;28.19
78835;BME280;68187;42.682;23.352;2023-02-26T12:55:27;93843.88;;;18.72;26.37
78835;BME280;68187;42.682;23.352;2023-02-26T13:01:19;93864.25;;;18.76;27.22
78835;BME280;68187;42.682;23.352;2023-02-26T13:04:10;93843.78;;;18.68;26.21
78835;BME280;68187;42.682;23.352;2023-02-26T13:07:05;93840.09;;;18.57;26.74
78835;BME280;68187;42.682;23.352;2023-02-26T13:09:49;93835.81;;;18.40;26.04
78835;BME280;68187;42.682;23.352;2023-02-26T13:12:32;93836.00;;;18.32;25.52
78835;BME280;68187;42.682;23.352;2023-02-26T13:15:17;93835.38;;;18.23;25.88
78835;BME280;68187;42.682;23.352;2023-02-26T13:17:51;93845.72;;;18.24;26.72
78835;BME280;68187;42.682;23.352;2023-02-26T13:20:24;93854.13;;;18.11;27.37
78835;BME280;68187;42.682;23.352;2023-02-26T13:22:56;93862.84;;;18.08;27.92
78835;BME280;68187;42.682;23.352;2023-02-26T13:25:32;93869.25;;;18.19;27.52